sensor_id;sensor_type;location;lat;lon;timestamp;P1;durP1;ratioP1;P2;durP2;ratioP2
32838;SDS011;19182;41.820;12.808;2023-06-10T00:01:45;15.65;;;9.00;;
32838;SDS011;19182;41.820;12.808;2023-06-10T00:04:12;15.35;;;8.73;;
32838;SDS011;19182;41.820;12.808;2023-06-10T00:06:39;15.82;;;10.13;;
32838;SDS011;19182;41.820;12.808;2023-06-10T00:09:06;15.77;;;9.65;;
32838;SDS011;19182;41.820;12.808;2023-06-10T00:11:39;16.45;;;10.25;;
32838;SDS011;19182;41.820;12.808;2023-06-10T00:14:05;19.90;;;10.40;;
32838;SDS011;19182;41.820;12.808;2023-06-10T00:16:31;22.15;;;10.23;;
32838;SDS011;19182;41.820;12.808;2023-06-10T00:18:59;16.95;;;10.43;;
32838;SDS011;19182;41.820;12.808;2023-06-10T00:21:26;25.55;;;11.43;;
32838;SDS011;19182;41.820;12.808;2023-06-10T00:23:53;19.67;;;10.98;;
32838;SDS011;19182;41.820;12.808;2023-06-10T00:26:21;20.38;;;11.00;;
32838;SDS011;19182;41.820;12.808;2023-06-10T00:28:47;22.02;;;11.50;;
32838;SDS011;19182;41.820;12.808;2023-06-10T00:31:13;12.95;;;10.57;;
32838;SDS011;19182;41.820;12.808;2023-06-10T00:33:38;16.83;;;12.15;;
32838;SDS011;19182;41.820;12.808;2023-06-10T00:36:05;16.42;;;10.48;;
32838;SDS011;19182;41.820;12.808;2023-06-10T00:38:32;19.98;;;12.60;;
32838;SDS011;19182;41.820;12.808;2023-06-10T00:40:58;23.15;;;11.20;;
32838;SDS011;19182;41.820;12.808;2023-06-10T00:43:24;25.45;;;12.32;;
32838;SDS011;19182;41.820;12.808;2023-06-10T00:45:50;18.73;;;12.68;;
32838;SDS011;19182;41.820;12.808;2023-06-10T00:48:18;19.33;;;12.68;;
32838;SDS011;19182;41.820;12.808;2023-06-10T00:50:45;20.10;;;12.82;;
32838;SDS011;19182;41.820;12.808;2023-06-10T00:53:13;19.77;;;12.40;;
32838;SDS011;19182;41.820;12.808;2023-06-10T00:55:40;19.00;;;12.00;;
32838;SDS011;19182;41.820;12.808;2023-06-10T00:58:06;20.08;;;12.32;;
32838;SDS011;19182;41.820;12.808;2023-06-10T01:00:34;21.88;;;12.77;;
32838;SDS011;19182;41.820;12.808;2023-06-10T01:03:02;20.20;;;12.82;;
32838;SDS011;19182;41.820;12.808;2023-06-10T01:05:32;19.63;;;11.80;;
32838;SDS011;19182;41.820;12.808;2023-06-10T01:10:40;19.83;;;12.97;;
32838;SDS011;19182;41.820;12.808;2023-06-10T01:13:11;21.67;;;13.20;;
32838;SDS011;19182;41.820;12.808;2023-06-10T01:15:38;19.35;;;11.32;;
32838;SDS011;19182;41.820;12.808;2023-06-10T01:18:06;17.05;;;12.10;;
32838;SDS011;19182;41.820;12.808;2023-06-10T01:20:36;18.38;;;13.10;;
32838;SDS011;19182;41.820;12.808;2023-06-10T01:23:05;19.02;;;13.20;;
32838;SDS011;19182;41.820;12.808;2023-06-10T01:25:31;18.90;;;13.63;;
32838;SDS011;19182;41.820;12.808;2023-06-10T01:28:13;19.50;;;13.18;;
32838;SDS011;19182;41.820;12.808;2023-06-10T01:33:43;21.15;;;12.77;;
32838;SDS011;19182;41.820;12.808;2023-06-10T01:36:12;20.90;;;11.45;;
32838;SDS011;19182;41.820;12.808;2023-06-10T01:38:44;21.85;;;11.93;;
32838;SDS011;19182;41.820;12.808;2023-06-10T01:41:16;20.48;;;12.05;;
32838;SDS011;19182;41.820;12.808;2023-06-10T01:43:43;20.75;;;12.80;;
32838;SDS011;19182;41.820;12.808;2023-06-10T01:46:09;24.73;;;13.32;;
32838;SDS011;19182;41.820;12.808;2023-06-10T01:48:36;19.13;;;12.57;;
32838;SDS011;19182;41.820;12.808;2023-06-10T01:51:03;18.60;;;12.20;;
32838;SDS011;19182;41.820;12.808;2023-06-10T01:53:29;17.20;;;12.07;;
32838;SDS011;19182;41.820;12.808;2023-06-10T01:55:56;22.38;;;12.50;;
32838;SDS011;19182;41.820;12.808;2023-06-10T01:58:21;21.85;;;13.77;;
32838;SDS011;19182;41.820;12.808;2023-06-10T02:00:47;21.27;;;12.63;;
32838;SDS011;19182;41.820;12.808;2023-06-10T02:03:13;21.58;;;14.05;;
32838;SDS011;19182;41.820;12.808;2023-06-10T02:05:39;22.98;;;12.75;;
32838;SDS011;19182;41.820;12.808;2023-06-10T02:08:05;21.27;;;11.98;;
32838;SDS011;19182;41.820;12.808;2023-06-10T02:10:31;18.40;;;11.75;;
32838;SDS011;19182;41.820;12.808;2023-06-10T02:12:59;19.70;;;11.55;;
32838;SDS011;19182;41.820;12.808;2023-06-10T02:15:24;16.85;;;12.18;;
32838;SDS011;19182;41.820;12.808;2023-06-10T02:17:50;18.33;;;11.90;;
32838;SDS011;19182;41.820;12.808;2023-06-10T02:20:17;19.67;;;11.18;;
32838;SDS011;19182;41.820;12.808;2023-06-10T02:22:44;15.18;;;10.73;;
32838;SDS011;19182;41.820;12.808;2023-06-10T02:25:09;17.73;;;10.55;;
32838;SDS011;19182;41.820;12.808;2023-06-10T02:27:36;17.73;;;11.38;;
32838;SDS011;19182;41.820;12.808;2023-06-10T02:30:02;16.65;;;11.82;;
32838;SDS011;19182;41.820;12.808;2023-06-10T02:32:29;21.85;;;11.52;;
32838;SDS011;19182;41.820;12.808;2023-06-10T02:34:56;17.80;;;10.40;;
32838;SDS011;19182;41.820;12.808;2023-06-10T02:37:25;14.83;;;10.40;;
32838;SDS011;19182;41.820;12.808;2023-06-10T02:39:51;21.27;;;9.18;;
32838;SDS011;19182;41.820;12.808;2023-06-10T02:42:19;14.73;;;8.60;;
32838;SDS011;19182;41.820;12.808;2023-06-10T02:44:45;17.67;;;9.13;;
32838;SDS011;19182;41.820;12.808;2023-06-10T02:47:10;18.23;;;9.50;;
32838;SDS011;19182;41.820;12.808;2023-06-10T02:49:36;15.27;;;8.77;;
32838;SDS011;19182;41.820;12.808;2023-06-10T02:52:03;14.85;;;9.05;;
32838;SDS011;19182;41.820;12.808;2023-06-10T02:54:29;17.42;;;9.00;;
32838;SDS011;19182;41.820;12.808;2023-06-10T02:56:55;13.88;;;8.30;;
32838;SDS011;19182;41.820;12.808;2023-06-10T02:59:21;17.70;;;9.15;;
32838;SDS011;19182;41.820;12.808;2023-06-10T03:01:48;13.30;;;8.25;;
32838;SDS011;19182;41.820;12.808;2023-06-10T03:04:13;15.43;;;9.40;;
32838;SDS011;19182;41.820;12.808;2023-06-10T03:06:40;11.48;;;7.68;;
32838;SDS011;19182;41.820;12.808;2023-06-10T03:09:07;18.13;;;7.95;;
32838;SDS011;19182;41.820;12.808;2023-06-10T03:11:33;17.38;;;8.88;;
32838;SDS011;19182;41.820;12.808;2023-06-10T03:13:59;13.63;;;7.97;;
32838;SDS011;19182;41.820;12.808;2023-06-10T03:16:25;12.02;;;8.65;;
32838;SDS011;19182;41.820;12.808;2023-06-10T03:18:52;14.25;;;9.30;;
32838;SDS011;19182;41.820;12.808;2023-06-10T03:21:18;16.70;;;9.55;;
32838;SDS011;19182;41.820;12.808;2023-06-10T03:23:44;15.25;;;9.82;;
32838;SDS011;19182;41.820;12.808;2023-06-10T03:26:10;12.85;;;9.15;;
32838;SDS011;19182;41.820;12.808;2023-06-10T03:28:37;16.55;;;9.05;;
32838;SDS011;19182;41.820;12.808;2023-06-10T03:31:04;15.00;;;8.75;;
32838;SDS011;19182;41.820;12.808;2023-06-10T03:33:30;14.90;;;8.38;;
32838;SDS011;19182;41.820;12.808;2023-06-10T03:35:57;12.68;;;7.57;;
32838;SDS011;19182;41.820;12.808;2023-06-10T03:38:23;13.88;;;8.00;;
32838;SDS011;19182;41.820;12.808;2023-06-10T03:40:49;13.85;;;6.80;;
32838;SDS011;19182;41.820;12.808;2023-06-10T03:43:14;14.70;;;6.88;;
32838;SDS011;19182;41.820;12.808;2023-06-10T03:45:40;10.57;;;6.55;;
32838;SDS011;19182;41.820;12.808;2023-06-10T03:48:06;18.52;;;6.93;;
32838;SDS011;19182;41.820;12.808;2023-06-10T03:50:33;12.52;;;7.05;;
32838;SDS011;19182;41.820;12.808;2023-06-10T03:53:01;16.65;;;6.75;;
32838;SDS011;19182;41.820;12.808;2023-06-10T03:55:27;19.38;;;8.43;;
32838;SDS011;19182;41.820;12.808;2023-06-10T03:57:52;17.88;;;7.38;;
32838;SDS011;19182;41.820;12.808;2023-06-10T04:00:19;12.18;;;5.78;;
32838;SDS011;19182;41.820;12.808;2023-06-10T04:02:46;10.52;;;5.50;;
32838;SDS011;19182;41.820;12.808;2023-06-10T04:05:15;9.00;;;5.80;;
32838;SDS011;19182;41.820;12.808;2023-06-10T04:07:41;11.90;;;5.55;;
32838;SDS011;19182;41.820;12.808;2023-06-10T04:10:09;8.70;;;5.03;;
32838;SDS011;19182;41.820;12.808;2023-06-10T04:12:35;12.02;;;6.32;;
32838;SDS011;19182;41.820;12.808;2023-06-10T04:15:02;17.70;;;5.18;;
32838;SDS011;19182;41.820;12.808;2023-06-10T04:17:29;16.38;;;5.22;;
32838;SDS011;19182;41.820;12.808;2023-06-10T04:19:55;10.27;;;4.63;;
32838;SDS011;19182;41.820;12.808;2023-06-10T04:22:23;13.88;;;4.55;;
32838;SDS011;19182;41.820;12.808;2023-06-10T04:24:48;7.70;;;5.38;;
32838;SDS011;19182;41.820;12.808;2023-06-10T04:27:14;9.48;;;5.85;;
32838;SDS011;19182;41.820;12.808;2023-06-10T04:29:40;8.50;;;5.22;;
32838;SDS011;19182;41.820;12.808;2023-06-10T04:32:06;11.70;;;4.75;;
32838;SDS011;19182;41.820;12.808;2023-06-10T04:34:33;9.70;;;5.45;;
32838;SDS011;19182;41.820;12.808;2023-06-10T04:36:59;11.57;;;7.57;;
32838;SDS011;19182;41.820;12.808;2023-06-10T04:39:26;22.98;;;10.20;;
32838;SDS011;19182;41.820;12.808;2023-06-10T04:41:52;15.50;;;8.73;;
32838;SDS011;19182;41.820;12.808;2023-06-10T04:44:18;15.02;;;8.18;;
32838;SDS011;19182;41.820;12.808;2023-06-10T04:46:44;16.75;;;8.57;;
32838;SDS011;19182;41.820;12.808;2023-06-10T04:49:10;16.35;;;8.85;;
32838;SDS011;19182;41.820;12.808;2023-06-10T04:51:38;10.75;;;6.07;;
32838;SDS011;19182;41.820;12.808;2023-06-10T04:54:05;10.75;;;6.28;;
32838;SDS011;19182;41.820;12.808;2023-06-10T04:56:32;11.85;;;6.93;;
32838;SDS011;19182;41.820;12.808;2023-06-10T04:58:58;14.95;;;7.63;;
32838;SDS011;19182;41.820;12.808;2023-06-10T05:01:25;16.77;;;9.20;;
32838;SDS011;19182;41.820;12.808;2023-06-10T05:03:52;20.77;;;10.05;;
32838;SDS011;19182;41.820;12.808;2023-06-10T05:06:19;20.10;;;7.95;;
32838;SDS011;19182;41.820;12.808;2023-06-10T05:08:45;18.50;;;9.25;;
32838;SDS011;19182;41.820;12.808;2023-06-10T05:11:12;14.80;;;7.25;;
32838;SDS011;19182;41.820;12.808;2023-06-10T05:13:37;13.07;;;5.18;;
32838;SDS011;19182;41.820;12.808;2023-06-10T05:16:06;13.27;;;6.20;;
32838;SDS011;19182;41.820;12.808;2023-06-10T05:18:32;7.55;;;4.35;;
32838;SDS011;19182;41.820;12.808;2023-06-10T05:20:58;9.63;;;4.55;;
32838;SDS011;19182;41.820;12.808;2023-06-10T05:23:24;6.57;;;4.88;;
32838;SDS011;19182;41.820;12.808;2023-06-10T05:25:49;9.32;;;5.00;;
32838;SDS011;19182;41.820;12.808;2023-06-10T05:28:16;8.73;;;5.20;;
32838;SDS011;19182;41.820;12.808;2023-06-10T05:30:43;6.18;;;4.57;;
32838;SDS011;19182;41.820;12.808;2023-06-10T05:33:09;6.10;;;4.25;;
32838;SDS011;19182;41.820;12.808;2023-06-10T05:35:34;6.90;;;3.80;;
32838;SDS011;19182;41.820;12.808;2023-06-10T05:38:02;5.55;;;4.05;;
32838;SDS011;19182;41.820;12.808;2023-06-10T05:40:28;8.65;;;4.20;;
32838;SDS011;19182;41.820;12.808;2023-06-10T05:42:53;7.78;;;3.65;;
32838;SDS011;19182;41.820;12.808;2023-06-10T05:45:19;5.63;;;3.20;;
32838;SDS011;19182;41.820;12.808;2023-06-10T05:47:45;5.35;;;2.88;;
32838;SDS011;19182;41.820;12.808;2023-06-10T05:50:10;10.98;;;3.83;;
32838;SDS011;19182;41.820;12.808;2023-06-10T05:52:36;10.35;;;2.97;;
32838;SDS011;19182;41.820;12.808;2023-06-10T05:55:02;4.60;;;3.28;;
32838;SDS011;19182;41.820;12.808;2023-06-10T05:57:30;8.40;;;3.40;;
32838;SDS011;19182;41.820;12.808;2023-06-10T05:59:56;9.98;;;5.28;;
32838;SDS011;19182;41.820;12.808;2023-06-10T06:02:21;14.45;;;7.68;;
32838;SDS011;19182;41.820;12.808;2023-06-10T06:04:48;19.63;;;9.30;;
32838;SDS011;19182;41.820;12.808;2023-06-10T06:07:13;10.40;;;4.60;;
32838;SDS011;19182;41.820;12.808;2023-06-10T06:09:39;7.82;;;3.50;;
32838;SDS011;19182;41.820;12.808;2023-06-10T06:12:05;5.25;;;3.33;;
32838;SDS011;19182;41.820;12.808;2023-06-10T06:14:32;4.38;;;3.30;;
32838;SDS011;19182;41.820;12.808;2023-06-10T06:17:01;7.60;;;3.50;;
32838;SDS011;19182;41.820;12.808;2023-06-10T06:19:29;5.07;;;2.95;;
32838;SDS011;19182;41.820;12.808;2023-06-10T06:21:55;5.80;;;3.13;;
32838;SDS011;19182;41.820;12.808;2023-06-10T06:24:22;14.32;;;3.63;;
32838;SDS011;19182;41.820;12.808;2023-06-10T06:26:49;3.47;;;2.95;;
32838;SDS011;19182;41.820;12.808;2023-06-10T06:29:16;9.20;;;3.60;;
32838;SDS011;19182;41.820;12.808;2023-06-10T06:31:41;9.77;;;2.83;;
32838;SDS011;19182;41.820;12.808;2023-06-10T06:34:07;6.43;;;3.50;;
32838;SDS011;19182;41.820;12.808;2023-06-10T06:36:34;7.18;;;3.17;;
32838;SDS011;19182;41.820;12.808;2023-06-10T06:39:00;6.03;;;3.08;;
32838;SDS011;19182;41.820;12.808;2023-06-10T06:41:26;6.28;;;3.22;;
32838;SDS011;19182;41.820;12.808;2023-06-10T06:43:56;6.40;;;3.25;;
32838;SDS011;19182;41.820;12.808;2023-06-10T06:46:21;3.17;;;2.38;;
32838;SDS011;19182;41.820;12.808;2023-06-10T06:48:48;4.40;;;2.97;;
32838;SDS011;19182;41.820;12.808;2023-06-10T06:51:14;4.65;;;2.50;;
32838;SDS011;19182;41.820;12.808;2023-06-10T06:53:40;4.60;;;2.63;;
32838;SDS011;19182;41.820;12.808;2023-06-10T06:56:11;6.75;;;3.42;;
32838;SDS011;19182;41.820;12.808;2023-06-10T06:58:37;8.02;;;3.20;;
32838;SDS011;19182;41.820;12.808;2023-06-10T07:01:02;5.10;;;3.22;;
32838;SDS011;19182;41.820;12.808;2023-06-10T07:03:28;5.88;;;3.50;;
32838;SDS011;19182;41.820;12.808;2023-06-10T07:05:54;10.23;;;3.38;;
32838;SDS011;19182;41.820;12.808;2023-06-10T07:08:20;5.47;;;2.72;;
32838;SDS011;19182;41.820;12.808;2023-06-10T07:10:45;10.80;;;3.30;;
32838;SDS011;19182;41.820;12.808;2023-06-10T07:13:11;3.80;;;2.08;;
32838;SDS011;19182;41.820;12.808;2023-06-10T07:15:36;3.47;;;1.95;;
32838;SDS011;19182;41.820;12.808;2023-06-10T07:18:03;4.53;;;1.80;;
32838;SDS011;19182;41.820;12.808;2023-06-10T07:20:29;4.50;;;1.73;;
32838;SDS011;19182;41.820;12.808;2023-06-10T07:22:54;3.55;;;1.67;;
32838;SDS011;19182;41.820;12.808;2023-06-10T07:25:20;9.85;;;2.10;;
32838;SDS011;19182;41.820;12.808;2023-06-10T07:27:46;6.28;;;2.25;;
32838;SDS011;19182;41.820;12.808;2023-06-10T07:30:12;4.22;;;2.58;;
32838;SDS011;19182;41.820;12.808;2023-06-10T07:32:37;8.65;;;2.20;;
32838;SDS011;19182;41.820;12.808;2023-06-10T07:35:03;5.82;;;2.30;;
32838;SDS011;19182;41.820;12.808;2023-06-10T07:37:32;6.03;;;2.20;;
32838;SDS011;19182;41.820;12.808;2023-06-10T07:39:57;4.22;;;1.67;;
32838;SDS011;19182;41.820;12.808;2023-06-10T07:42:23;5.32;;;1.92;;
32838;SDS011;19182;41.820;12.808;2023-06-10T07:44:49;6.22;;;2.50;;
32838;SDS011;19182;41.820;12.808;2023-06-10T07:47:14;3.17;;;2.00;;
32838;SDS011;19182;41.820;12.808;2023-06-10T07:49:40;3.53;;;1.50;;
32838;SDS011;19182;41.820;12.808;2023-06-10T07:52:06;5.40;;;2.25;;
32838;SDS011;19182;41.820;12.808;2023-06-10T07:54:32;4.00;;;1.60;;
32838;SDS011;19182;41.820;12.808;2023-06-10T07:56:58;3.67;;;2.00;;
32838;SDS011;19182;41.820;12.808;2023-06-10T07:59:24;3.63;;;2.05;;
32838;SDS011;19182;41.820;12.808;2023-06-10T08:01:51;4.45;;;1.80;;
32838;SDS011;19182;41.820;12.808;2023-06-10T08:04:17;3.67;;;1.90;;
32838;SDS011;19182;41.820;12.808;2023-06-10T08:06:43;3.13;;;2.22;;
32838;SDS011;19182;41.820;12.808;2023-06-10T08:09:09;3.25;;;1.77;;
32838;SDS011;19182;41.820;12.808;2023-06-10T08:11:35;3.42;;;1.75;;
32838;SDS011;19182;41.820;12.808;2023-06-10T08:14:01;4.18;;;1.85;;
32838;SDS011;19182;41.820;12.808;2023-06-10T08:16:27;3.70;;;2.25;;
32838;SDS011;19182;41.820;12.808;2023-06-10T08:18:52;5.97;;;2.00;;
32838;SDS011;19182;41.820;12.808;2023-06-10T08:21:18;4.47;;;2.40;;
32838;SDS011;19182;41.820;12.808;2023-06-10T08:23:44;3.53;;;1.92;;
32838;SDS011;19182;41.820;12.808;2023-06-10T08:26:10;8.48;;;2.58;;
32838;SDS011;19182;41.820;12.808;2023-06-10T08:28:36;2.78;;;1.67;;
32838;SDS011;19182;41.820;12.808;2023-06-10T08:31:01;4.32;;;1.95;;
32838;SDS011;19182;41.820;12.808;2023-06-10T08:33:27;3.35;;;2.00;;
32838;SDS011;19182;41.820;12.808;2023-06-10T08:35:53;5.53;;;1.60;;
32838;SDS011;19182;41.820;12.808;2023-06-10T08:38:18;2.17;;;1.33;;
32838;SDS011;19182;41.820;12.808;2023-06-10T08:40:44;3.22;;;1.25;;
32838;SDS011;19182;41.820;12.808;2023-06-10T08:43:23;5.47;;;1.95;;
32838;SDS011;19182;41.820;12.808;2023-06-10T08:45:58;4.72;;;2.30;;
32838;SDS011;19182;41.820;12.808;2023-06-10T08:48:26;3.88;;;2.15;;
32838;SDS011;19182;41.820;12.808;2023-06-10T08:50:55;5.30;;;2.63;;
32838;SDS011;19182;41.820;12.808;2023-06-10T08:53:23;8.25;;;3.58;;
32838;SDS011;19182;41.820;12.808;2023-06-10T08:55:52;5.90;;;3.95;;
32838;SDS011;19182;41.820;12.808;2023-06-10T08:58:20;6.05;;;3.42;;
32838;SDS011;19182;41.820;12.808;2023-06-10T09:00:46;5.45;;;2.70;;
32838;SDS011;19182;41.820;12.808;2023-06-10T09:03:13;5.47;;;1.95;;
32838;SDS011;19182;41.820;12.808;2023-06-10T09:05:39;7.18;;;2.40;;
32838;SDS011;19182;41.820;12.808;2023-06-10T09:08:06;9.40;;;4.85;;
32838;SDS011;19182;41.820;12.808;2023-06-10T09:10:32;6.68;;;2.35;;
32838;SDS011;19182;41.820;12.808;2023-06-10T09:12:58;4.22;;;1.90;;
32838;SDS011;19182;41.820;12.808;2023-06-10T09:15:24;5.70;;;2.15;;
32838;SDS011;19182;41.820;12.808;2023-06-10T09:17:50;6.35;;;2.00;;
32838;SDS011;19182;41.820;12.808;2023-06-10T09:20:16;8.73;;;2.63;;
32838;SDS011;19182;41.820;12.808;2023-06-10T09:22:42;6.95;;;2.72;;
32838;SDS011;19182;41.820;12.808;2023-06-10T09:25:09;8.35;;;2.50;;
32838;SDS011;19182;41.820;12.808;2023-06-10T09:27:50;6.70;;;3.05;;
32838;SDS011;19182;41.820;12.808;2023-06-10T09:30:25;6.65;;;2.10;;
32838;SDS011;19182;41.820;12.808;2023-06-10T09:32:54;4.45;;;1.60;;
32838;SDS011;19182;41.820;12.808;2023-06-10T09:35:22;4.07;;;1.52;;
32838;SDS011;19182;41.820;12.808;2023-06-10T09:37:49;3.90;;;1.95;;
32838;SDS011;19182;41.820;12.808;2023-06-10T09:40:17;1.63;;;1.17;;
32838;SDS011;19182;41.820;12.808;2023-06-10T09:42:43;4.35;;;1.52;;
32838;SDS011;19182;41.820;12.808;2023-06-10T09:45:08;3.10;;;1.60;;
32838;SDS011;19182;41.820;12.808;2023-06-10T09:47:35;2.65;;;1.30;;
32838;SDS011;19182;41.820;12.808;2023-06-10T09:50:01;4.55;;;1.83;;
32838;SDS011;19182;41.820;12.808;2023-06-10T09:52:27;4.00;;;1.75;;
32838;SDS011;19182;41.820;12.808;2023-06-10T09:54:58;3.80;;;1.73;;
32838;SDS011;19182;41.820;12.808;2023-06-10T09:57:25;3.53;;;1.70;;
32838;SDS011;19182;41.820;12.808;2023-06-10T09:59:55;5.05;;;2.13;;
32838;SDS011;19182;41.820;12.808;2023-06-10T10:02:21;4.93;;;1.67;;
32838;SDS011;19182;41.820;12.808;2023-06-10T10:04:46;4.38;;;1.85;;
32838;SDS011;19182;41.820;12.808;2023-06-10T10:07:12;2.97;;;1.70;;
32838;SDS011;19182;41.820;12.808;2023-06-10T10:09:39;1.63;;;1.30;;
32838;SDS011;19182;41.820;12.808;2023-06-10T10:12:10;2.80;;;1.50;;
32838;SDS011;19182;41.820;12.808;2023-06-10T10:14:38;2.95;;;1.83;;
32838;SDS011;19182;41.820;12.808;2023-06-10T10:17:06;2.85;;;1.80;;
32838;SDS011;19182;41.820;12.808;2023-06-10T10:19:36;5.10;;;1.70;;
32838;SDS011;19182;41.820;12.808;2023-06-10T10:22:06;7.57;;;1.80;;
32838;SDS011;19182;41.820;12.808;2023-06-10T10:24:38;6.78;;;2.33;;
32838;SDS011;19182;41.820;12.808;2023-06-10T10:27:11;6.00;;;1.73;;
32838;SDS011;19182;41.820;12.808;2023-06-10T10:29:42;2.08;;;1.40;;
32838;SDS011;19182;41.820;12.808;2023-06-10T10:32:13;4.13;;;1.60;;
32838;SDS011;19182;41.820;12.808;2023-06-10T10:34:43;2.97;;;1.50;;
32838;SDS011;19182;41.820;12.808;2023-06-10T10:37:11;4.13;;;1.58;;
32838;SDS011;19182;41.820;12.808;2023-06-10T10:39:37;2.15;;;1.42;;
32838;SDS011;19182;41.820;12.808;2023-06-10T10:42:03;2.95;;;1.52;;
32838;SDS011;19182;41.820;12.808;2023-06-10T10:44:30;4.38;;;2.03;;
32838;SDS011;19182;41.820;12.808;2023-06-10T10:46:57;5.07;;;1.88;;
32838;SDS011;19182;41.820;12.808;2023-06-10T10:49:28;4.47;;;1.63;;
32838;SDS011;19182;41.820;12.808;2023-06-10T10:52:00;4.75;;;1.95;;
32838;SDS011;19182;41.820;12.808;2023-06-10T10:54:33;3.28;;;1.90;;
32838;SDS011;19182;41.820;12.808;2023-06-10T10:57:09;4.65;;;2.08;;
32838;SDS011;19182;41.820;12.808;2023-06-10T10:59:43;4.93;;;1.98;;
32838;SDS011;19182;41.820;12.808;2023-06-10T11:02:18;4.78;;;1.67;;
32838;SDS011;19182;41.820;12.808;2023-06-10T11:04:56;3.67;;;2.35;;
32838;SDS011;19182;41.820;12.808;2023-06-10T11:07:24;2.47;;;1.92;;
32838;SDS011;19182;41.820;12.808;2023-06-10T11:10:00;4.60;;;2.35;;
32838;SDS011;19182;41.820;12.808;2023-06-10T11:15:30;5.45;;;2.08;;
32838;SDS011;19182;41.820;12.808;2023-06-10T11:18:09;6.50;;;2.13;;
32838;SDS011;19182;41.820;12.808;2023-06-10T11:29:05;5.18;;;2.38;;
32838;SDS011;19182;41.820;12.808;2023-06-10T11:31:39;4.65;;;2.13;;
32838;SDS011;19182;41.820;12.808;2023-06-10T11:34:09;7.25;;;2.78;;
32838;SDS011;19182;41.820;12.808;2023-06-10T11:36:39;6.05;;;2.55;;
32838;SDS011;19182;41.820;12.808;2023-06-10T11:39:07;5.50;;;2.75;;
32838;SDS011;19182;41.820;12.808;2023-06-10T11:41:34;6.97;;;2.83;;
32838;SDS011;19182;41.820;12.808;2023-06-10T11:44:07;3.85;;;2.22;;
32838;SDS011;19182;41.820;12.808;2023-06-10T11:46:34;10.45;;;4.15;;
32838;SDS011;19182;41.820;12.808;2023-06-10T11:49:00;6.45;;;3.42;;
32838;SDS011;19182;41.820;12.808;2023-06-10T11:51:37;6.03;;;2.70;;
32838;SDS011;19182;41.820;12.808;2023-06-10T11:54:05;6.13;;;2.63;;
32838;SDS011;19182;41.820;12.808;2023-06-10T11:56:34;8.80;;;2.40;;
32838;SDS011;19182;41.820;12.808;2023-06-10T11:59:03;8.15;;;3.45;;
32838;SDS011;19182;41.820;12.808;2023-06-10T12:01:35;5.15;;;2.70;;
32838;SDS011;19182;41.820;12.808;2023-06-10T12:04:03;8.02;;;2.17;;
32838;SDS011;19182;41.820;12.808;2023-06-10T12:06:40;6.07;;;2.50;;
32838;SDS011;19182;41.820;12.808;2023-06-10T12:11:44;7.28;;;2.60;;
32838;SDS011;19182;41.820;12.808;2023-06-10T12:14:11;7.63;;;2.60;;
32838;SDS011;19182;41.820;12.808;2023-06-10T12:16:37;9.10;;;2.60;;
32838;SDS011;19182;41.820;12.808;2023-06-10T12:19:03;7.75;;;2.90;;
32838;SDS011;19182;41.820;12.808;2023-06-10T12:21:31;5.45;;;2.20;;
32838;SDS011;19182;41.820;12.808;2023-06-10T12:26:42;6.55;;;2.63;;
32838;SDS011;19182;41.820;12.808;2023-06-10T12:29:16;9.75;;;3.05;;
32838;SDS011;19182;41.820;12.808;2023-06-10T12:31:52;7.05;;;2.60;;
32838;SDS011;19182;41.820;12.808;2023-06-10T12:34:37;5.40;;;2.60;;
32838;SDS011;19182;41.820;12.808;2023-06-10T12:37:04;11.63;;;3.05;;
32838;SDS011;19182;41.820;12.808;2023-06-10T12:39:38;10.05;;;3.03;;
32838;SDS011;19182;41.820;12.808;2023-06-10T12:42:04;10.40;;;2.80;;
32838;SDS011;19182;41.820;12.808;2023-06-10T12:44:34;13.02;;;3.83;;
32838;SDS011;19182;41.820;12.808;2023-06-10T12:47:07;6.28;;;2.60;;
32838;SDS011;19182;41.820;12.808;2023-06-10T12:49:39;5.60;;;2.50;;
32838;SDS011;19182;41.820;12.808;2023-06-10T12:52:05;8.50;;;2.70;;
32838;SDS011;19182;41.820;12.808;2023-06-10T12:54:31;8.18;;;2.47;;
32838;SDS011;19182;41.820;12.808;2023-06-10T12:56:56;6.85;;;2.55;;
32838;SDS011;19182;41.820;12.808;2023-06-10T12:59:24;7.47;;;3.13;;
32838;SDS011;19182;41.820;12.808;2023-06-10T13:01:50;9.10;;;3.10;;
32838;SDS011;19182;41.820;12.808;2023-06-10T13:04:16;12.18;;;3.35;;
32838;SDS011;19182;41.820;12.808;2023-06-10T13:06:43;8.20;;;2.75;;
32838;SDS011;19182;41.820;12.808;2023-06-10T13:09:09;11.32;;;2.72;;
32838;SDS011;19182;41.820;12.808;2023-06-10T13:11:35;10.13;;;3.10;;
32838;SDS011;19182;41.820;12.808;2023-06-10T13:14:01;9.55;;;2.92;;
32838;SDS011;19182;41.820;12.808;2023-06-10T13:16:29;11.38;;;3.00;;
32838;SDS011;19182;41.820;12.808;2023-06-10T13:18:58;13.35;;;3.25;;
32838;SDS011;19182;41.820;12.808;2023-06-10T13:21:24;9.13;;;3.10;;
32838;SDS011;19182;41.820;12.808;2023-06-10T13:23:50;9.73;;;3.20;;
32838;SDS011;19182;41.820;12.808;2023-06-10T13:26:16;10.60;;;3.42;;
32838;SDS011;19182;41.820;12.808;2023-06-10T13:28:45;8.73;;;2.72;;
32838;SDS011;19182;41.820;12.808;2023-06-10T13:31:11;8.93;;;2.63;;
32838;SDS011;19182;41.820;12.808;2023-06-10T13:33:37;13.45;;;3.47;;
32838;SDS011;19182;41.820;12.808;2023-06-10T13:36:03;11.95;;;2.90;;
32838;SDS011;19182;41.820;12.808;2023-06-10T13:38:29;8.18;;;3.00;;
32838;SDS011;19182;41.820;12.808;2023-06-10T13:40:55;10.82;;;3.90;;
32838;SDS011;19182;41.820;12.808;2023-06-10T13:43:21;7.40;;;3.10;;
32838;SDS011;19182;41.820;12.808;2023-06-10T13:45:46;7.63;;;2.97;;
32838;SDS011;19182;41.820;12.808;2023-06-10T13:48:12;14.45;;;3.00;;
32838;SDS011;19182;41.820;12.808;2023-06-10T13:50:37;12.07;;;3.88;;
32838;SDS011;19182;41.820;12.808;2023-06-10T13:53:03;12.30;;;2.90;;
32838;SDS011;19182;41.820;12.808;2023-06-10T13:55:29;10.85;;;2.78;;
32838;SDS011;19182;41.820;12.808;2023-06-10T13:57:55;9.93;;;2.88;;
32838;SDS011;19182;41.820;12.808;2023-06-10T14:00:20;8.98;;;3.20;;
32838;SDS011;19182;41.820;12.808;2023-06-10T14:02:46;11.90;;;2.80;;
32838;SDS011;19182;41.820;12.808;2023-06-10T14:05:12;9.30;;;2.60;;
32838;SDS011;19182;41.820;12.808;2023-06-10T14:07:38;6.85;;;2.85;;
32838;SDS011;19182;41.820;12.808;2023-06-10T14:10:05;5.72;;;2.95;;
32838;SDS011;19182;41.820;12.808;2023-06-10T14:12:33;10.65;;;3.40;;
32838;SDS011;19182;41.820;12.808;2023-06-10T14:14:59;7.35;;;2.60;;
32838;SDS011;19182;41.820;12.808;2023-06-10T14:17:25;9.82;;;2.70;;
32838;SDS011;19182;41.820;12.808;2023-06-10T14:19:51;8.85;;;3.22;;
32838;SDS011;19182;41.820;12.808;2023-06-10T14:22:16;6.82;;;2.83;;
32838;SDS011;19182;41.820;12.808;2023-06-10T14:24:42;5.03;;;2.55;;
32838;SDS011;19182;41.820;12.808;2023-06-10T14:27:08;9.25;;;2.50;;
32838;SDS011;19182;41.820;12.808;2023-06-10T14:29:33;7.60;;;2.85;;
32838;SDS011;19182;41.820;12.808;2023-06-10T14:32:00;14.32;;;5.70;;
32838;SDS011;19182;41.820;12.808;2023-06-10T14:34:26;8.75;;;3.10;;
32838;SDS011;19182;41.820;12.808;2023-06-10T14:36:54;12.87;;;4.40;;
32838;SDS011;19182;41.820;12.808;2023-06-10T14:39:25;8.20;;;3.33;;
32838;SDS011;19182;41.820;12.808;2023-06-10T14:41:51;5.60;;;2.63;;
32838;SDS011;19182;41.820;12.808;2023-06-10T14:44:19;6.00;;;2.70;;
32838;SDS011;19182;41.820;12.808;2023-06-10T14:46:45;10.90;;;2.95;;
32838;SDS011;19182;41.820;12.808;2023-06-10T14:49:10;8.48;;;2.47;;